Terminal Aerodrome Forecast
Issued by NWS Goodland, KS

Home | Current Version | Previous Version | Text Only | Print | Product List | Glossary On
Versions: 1 2 3 4 5 6 7 8 9 10 11 12 13 14 15
588
FTUS43 KGLD 190520
TAFGLD
TAF
KGLD 190520Z 1906/2006 18011KT P6SM BKN250 WS020/19050KT
     FM191000 19011KT 6SM BR SCT010 SCT200
     FM191600 18015G25KT P6SM SCT100 BKN200=

USA.gov is the U.S. government's official web portal to all federal, state and local government web resources and services.